Impacts METAR Board
IDs:

KTPA - Tampa Intl Arpt, FL, US

Updated at: 0600 UTC 07 Dec 2022
Potential Impact None Slight Moderate High
Time 06/18Z 06/19Z 06/20Z 06/21Z 06/22Z 06/23Z 07/00Z 07/01Z 07/02Z 07/03Z 07/04Z 07/05Z 07/06Z
Temp78 78 80 78 77 75 73 71 71 71 70 70 69
Dewpt65 64 64 65 65 64 64 64 64 64 63 63 63
Altim30.18 30.17 30.16 30.17 30.17 30.19 30.20 30.21 30.23 30.24 30.24 30.25 30.24
VIS10 10 10 10 10 10 10 10 10 10 10 10 10
CIG-- 60 60 60 -- 55 -- -- -- -- -- -- --
CoverFEWBKNBKNBKNSCTBKNFEWFEWCLRCLRCLRCLRCLR
FltCatVFRVFRVFRVFRVFRVFRVFRVFRVFRVFRVFRVFRVFR
WX--------------------------
WDir2402402502502903003303503020304050
WSpd6 5 5 4 7 4 5 4 4 4 4 3 4
WGst-- -- -- -- -- -- -- -- -- -- -- -- --
Raw hourly METARs
KTPA 061753Z 24006KT 10SM FEW025 26/18 A3018 RMK AO2 SLP220 T02560183 10256 20194 58008
KTPA 061853Z 24005KT 10SM FEW025 BKN060 26/18 A3017 RMK AO2 SLP214 T02560178
KTPA 061953Z 25005KT 10SM FEW025 BKN060 27/18 A3016 RMK AO2 SLP212 T02670178
KTPA 062053Z 25004KT 10SM FEW032 BKN060 26/18 A3017 RMK AO2 SLP214 T02560183 55006
KTPA 062153Z 29007KT 10SM FEW034 SCT060 25/18 A3017 RMK AO2 SLP217 T02500183
KTPA 062253Z 30004KT 10SM SCT036 BKN055 24/18 A3019 RMK AO2 SLP222 T02390178
KTPA 062353Z 33005KT 10SM FEW034 FEW060 23/18 A3020 RMK AO2 SLP227 T02280178 10272 20228 53013
KTPA 070053Z 35004KT 10SM FEW055 22/18 A3021 RMK AO2 SLP231 T02170178
KTPA 070153Z 03004KT 10SM CLR 22/18 A3023 RMK AO2 SLP235 T02170178
KTPA 070253Z 02004KT 10SM CLR 22/18 A3024 RMK AO2 SLP239 T02170178 53012
KTPA 070353Z 03004KT 10SM CLR 21/17 A3024 RMK AO2 SLP241 T02110172
KTPA 070453Z 04003KT 10SM CLR 21/17 A3025 RMK AO2 SLP241 T02110172 402720189
KTPA 070553Z 05004KT 10SM CLR 21/17 A3024 RMK AO2 SLP239 T02060172 10228 20206 50000



Page loaded:  06:12 UTC  |   10:12 PM Pacific  |   11:12 PM Mountain  |   12:12 AM Central  |   01:12 AM Eastern

 

ADVISORIES

FORECASTS

FORECASTS

OBSERVATIONS

USER TOOLS

ABOUT US